Terminal Aerodrome Forecast
Issued by NWS

Home | Current Version | Previous Version | Text Only | Print | Product List | Glossary On
Versions: 1 2 3 4 5 6 7 8 9 10 11 12 13 14 15 16 17 18 19 20 21
000
FTUS45 KRIW 031100
TAFRKS
TAF
KRKS 031128Z 0312/0412 07010KT 5SM -SN SCT006 OVC015
      TEMPO 0315/0319 1SM -SN
     FM040200 08008KT 5SM -SN SCT015 BKN035
     FM040500 09006KT P6SM -SN BKN050=

USA.gov is the U.S. government's official web portal to all federal, state and local government web resources and services.